Holloman AFB, New Mexico
Current Conditions -  °F | °C
As of 7:58 AM on Wednesday 22 Oct 2014 (Local Time) from KHMN Reporting Station
Clear Clear  
Wind Chill: 47°   Ceiling: Unl
Heat Index: 49°   Visibility: 10mi
Dew Point: 48°   Wind: 5mph
Humidity: 96%   Direction: 350°N
Pressure: 30.13"   Gusts: NA
Location:  32.85°N, 106.1°W
Report Text: KHMN 221358Z AUTO 35004KT 10SM CLR 10/09 A3013 RMK AO2 SLP162 T00950089 $
Loading
Personal Weather Stations






























Interactive Weather Map
Tropical Storm Tracking
New forecast layout! Learn more

10-Day Weather Forecast

Advertisements
Track Severe Weather on mobile